Fletcher, Oklahoma
Current Conditions -  °F | °C
As of 8:58 PM on Monday 20 Oct 2014 (Local Time) from KFSI Reporting Station
Clear Clear  
Wind Chill: 70°   Ceiling: Unl
Heat Index: 70°   Visibility: 10mi
Dew Point: 60°   Wind: 5mph
Humidity: 69%   Direction: 160°SSE
Pressure: 30.01"   Gusts: NA
Location:  34.82°N, 98.24°W
Report Text: KFSI 210158Z AUTO 16004KT 10SM CLR 21/15 A3001 RMK AO2 SLP158 T02130154
Loading
Personal Weather Stations






























Interactive Weather Map
Tropical Storm Tracking
New forecast layout! Learn more

10-Day Weather Forecast

Advertisements
Track Severe Weather on mobile